sensor_id;sensor_type;location;lat;lon;timestamp;P1;durP1;ratioP1;P2;durP2;ratioP2
40541;SDS011;49288;52.194;5.676;2023-03-01T00:04:11;15.38;;;7.03;;
40541;SDS011;49288;52.194;5.676;2023-03-01T00:09:14;16.23;;;7.53;;
40541;SDS011;49288;52.194;5.676;2023-03-01T00:14:17;18.50;;;7.83;;
40541;SDS011;49288;52.194;5.676;2023-03-01T00:19:20;11.10;;;5.72;;
40541;SDS011;49288;52.194;5.676;2023-03-01T00:24:23;14.30;;;6.40;;
40541;SDS011;49288;52.194;5.676;2023-03-01T00:29:26;17.38;;;7.63;;
40541;SDS011;49288;52.194;5.676;2023-03-01T00:34:29;14.75;;;7.15;;
40541;SDS011;49288;52.194;5.676;2023-03-01T00:39:34;12.95;;;5.35;;
40541;SDS011;49288;52.194;5.676;2023-03-01T00:44:37;17.67;;;8.25;;
40541;SDS011;49288;52.194;5.676;2023-03-01T00:49:39;13.73;;;6.55;;
40541;SDS011;49288;52.194;5.676;2023-03-01T00:54:42;14.85;;;6.70;;
40541;SDS011;49288;52.194;5.676;2023-03-01T00:59:45;19.80;;;8.70;;
40541;SDS011;49288;52.194;5.676;2023-03-01T01:04:48;20.02;;;8.70;;
40541;SDS011;49288;52.194;5.676;2023-03-01T01:09:51;15.20;;;6.63;;
40541;SDS011;49288;52.194;5.676;2023-03-01T01:14:54;21.77;;;9.43;;
40541;SDS011;49288;52.194;5.676;2023-03-01T01:19:57;20.83;;;7.80;;
40541;SDS011;49288;52.194;5.676;2023-03-01T01:25:00;17.65;;;7.57;;
40541;SDS011;49288;52.194;5.676;2023-03-01T01:30:03;22.10;;;7.75;;
40541;SDS011;49288;52.194;5.676;2023-03-01T01:35:06;20.80;;;9.40;;
40541;SDS011;49288;52.194;5.676;2023-03-01T01:40:09;21.88;;;8.85;;
40541;SDS011;49288;52.194;5.676;2023-03-01T01:45:24;23.27;;;8.07;;
40541;SDS011;49288;52.194;5.676;2023-03-01T01:50:30;14.98;;;7.65;;
40541;SDS011;49288;52.194;5.676;2023-03-01T01:55:41;20.98;;;9.15;;
40541;SDS011;49288;52.194;5.676;2023-03-01T02:00:46;29.17;;;8.45;;
40541;SDS011;49288;52.194;5.676;2023-03-01T02:11:22;20.80;;;9.52;;
40541;SDS011;49288;52.194;5.676;2023-03-01T02:16:25;18.33;;;7.72;;
40541;SDS011;49288;52.194;5.676;2023-03-01T02:26:47;19.83;;;9.20;;
40541;SDS011;49288;52.194;5.676;2023-03-01T02:31:52;20.25;;;8.98;;
40541;SDS011;49288;52.194;5.676;2023-03-01T02:37:01;26.20;;;9.88;;
40541;SDS011;49288;52.194;5.676;2023-03-01T02:42:06;20.08;;;9.00;;
40541;SDS011;49288;52.194;5.676;2023-03-01T02:47:09;21.38;;;8.25;;
40541;SDS011;49288;52.194;5.676;2023-03-01T02:52:30;19.15;;;8.55;;
40541;SDS011;49288;52.194;5.676;2023-03-01T02:57:44;19.90;;;8.70;;
40541;SDS011;49288;52.194;5.676;2023-03-01T03:02:49;20.88;;;8.80;;
40541;SDS011;49288;52.194;5.676;2023-03-01T03:07:55;20.20;;;9.43;;
40541;SDS011;49288;52.194;5.676;2023-03-01T03:13:03;23.13;;;9.75;;
40541;SDS011;49288;52.194;5.676;2023-03-01T03:18:13;19.80;;;9.15;;
40541;SDS011;49288;52.194;5.676;2023-03-01T03:23:17;18.27;;;9.10;;
40541;SDS011;49288;52.194;5.676;2023-03-01T03:28:23;25.67;;;9.73;;
40541;SDS011;49288;52.194;5.676;2023-03-01T03:33:26;21.30;;;10.30;;
40541;SDS011;49288;52.194;5.676;2023-03-01T03:38:28;22.35;;;10.73;;
40541;SDS011;49288;52.194;5.676;2023-03-01T03:43:32;22.90;;;8.80;;
40541;SDS011;49288;52.194;5.676;2023-03-01T03:48:38;21.15;;;9.80;;
40541;SDS011;49288;52.194;5.676;2023-03-01T03:53:42;18.55;;;8.85;;
40541;SDS011;49288;52.194;5.676;2023-03-01T03:58:45;23.97;;;9.80;;
40541;SDS011;49288;52.194;5.676;2023-03-01T04:03:48;18.10;;;7.95;;
40541;SDS011;49288;52.194;5.676;2023-03-01T04:08:56;17.83;;;7.28;;
40541;SDS011;49288;52.194;5.676;2023-03-01T04:14:02;21.52;;;9.00;;
40541;SDS011;49288;52.194;5.676;2023-03-01T04:19:06;21.65;;;9.63;;
40541;SDS011;49288;52.194;5.676;2023-03-01T04:24:11;23.17;;;10.18;;
40541;SDS011;49288;52.194;5.676;2023-03-01T04:29:14;19.38;;;8.55;;
40541;SDS011;49288;52.194;5.676;2023-03-01T04:34:17;24.65;;;9.65;;
40541;SDS011;49288;52.194;5.676;2023-03-01T04:39:19;22.05;;;8.80;;
40541;SDS011;49288;52.194;5.676;2023-03-01T04:44:23;19.73;;;9.00;;
40541;SDS011;49288;52.194;5.676;2023-03-01T04:49:26;16.15;;;6.70;;
40541;SDS011;49288;52.194;5.676;2023-03-01T04:54:29;18.67;;;9.07;;
40541;SDS011;49288;52.194;5.676;2023-03-01T04:59:32;21.70;;;9.10;;
40541;SDS011;49288;52.194;5.676;2023-03-01T05:04:35;18.45;;;8.55;;
40541;SDS011;49288;52.194;5.676;2023-03-01T05:09:37;16.52;;;7.55;;
40541;SDS011;49288;52.194;5.676;2023-03-01T05:14:40;22.73;;;9.63;;
40541;SDS011;49288;52.194;5.676;2023-03-01T05:19:44;29.25;;;10.05;;
40541;SDS011;49288;52.194;5.676;2023-03-01T05:24:48;18.02;;;7.85;;
40541;SDS011;49288;52.194;5.676;2023-03-01T05:29:50;17.50;;;7.50;;
40541;SDS011;49288;52.194;5.676;2023-03-01T05:34:53;17.30;;;7.90;;
40541;SDS011;49288;52.194;5.676;2023-03-01T05:39:57;21.13;;;9.33;;
40541;SDS011;49288;52.194;5.676;2023-03-01T05:44:59;22.25;;;10.00;;
40541;SDS011;49288;52.194;5.676;2023-03-01T05:50:02;14.27;;;7.03;;
40541;SDS011;49288;52.194;5.676;2023-03-01T05:55:05;22.02;;;9.80;;
40541;SDS011;49288;52.194;5.676;2023-03-01T06:00:08;21.33;;;9.18;;
40541;SDS011;49288;52.194;5.676;2023-03-01T06:05:15;22.13;;;10.13;;
40541;SDS011;49288;52.194;5.676;2023-03-01T06:10:20;30.08;;;11.65;;
40541;SDS011;49288;52.194;5.676;2023-03-01T06:15:42;23.98;;;9.68;;
40541;SDS011;49288;52.194;5.676;2023-03-01T06:20:44;11.02;;;5.03;;
40541;SDS011;49288;52.194;5.676;2023-03-01T06:25:54;19.17;;;9.15;;
40541;SDS011;49288;52.194;5.676;2023-03-01T06:30:57;20.33;;;9.13;;
40541;SDS011;49288;52.194;5.676;2023-03-01T06:35:59;30.45;;;11.00;;
40541;SDS011;49288;52.194;5.676;2023-03-01T06:41:02;29.63;;;10.77;;
40541;SDS011;49288;52.194;5.676;2023-03-01T06:46:05;23.10;;;10.45;;
40541;SDS011;49288;52.194;5.676;2023-03-01T06:51:09;24.05;;;10.65;;
40541;SDS011;49288;52.194;5.676;2023-03-01T06:56:12;42.13;;;15.00;;
40541;SDS011;49288;52.194;5.676;2023-03-01T07:01:16;53.13;;;20.42;;
40541;SDS011;49288;52.194;5.676;2023-03-01T07:06:19;55.33;;;20.27;;
40541;SDS011;49288;52.194;5.676;2023-03-01T07:11:22;47.33;;;16.48;;
40541;SDS011;49288;52.194;5.676;2023-03-01T07:16:25;45.75;;;18.40;;
40541;SDS011;49288;52.194;5.676;2023-03-01T07:21:27;56.20;;;20.40;;
40541;SDS011;49288;52.194;5.676;2023-03-01T07:26:31;55.58;;;21.38;;
40541;SDS011;49288;52.194;5.676;2023-03-01T07:31:34;67.90;;;22.05;;
40541;SDS011;49288;52.194;5.676;2023-03-01T07:36:37;74.82;;;25.67;;
40541;SDS011;49288;52.194;5.676;2023-03-01T07:41:41;104.63;;;31.17;;
40541;SDS011;49288;52.194;5.676;2023-03-01T07:47:03;152.20;;;40.00;;
40541;SDS011;49288;52.194;5.676;2023-03-01T07:52:06;171.32;;;43.83;;
40541;SDS011;49288;52.194;5.676;2023-03-01T07:57:09;172.25;;;44.67;;
40541;SDS011;49288;52.194;5.676;2023-03-01T08:02:13;234.95;;;54.83;;
40541;SDS011;49288;52.194;5.676;2023-03-01T08:07:17;234.55;;;56.67;;
40541;SDS011;49288;52.194;5.676;2023-03-01T08:12:19;277.50;;;68.22;;
40541;SDS011;49288;52.194;5.676;2023-03-01T08:17:22;263.85;;;69.00;;
40541;SDS011;49288;52.194;5.676;2023-03-01T08:22:25;258.33;;;65.90;;
40541;SDS011;49288;52.194;5.676;2023-03-01T08:27:27;262.98;;;71.03;;
40541;SDS011;49288;52.194;5.676;2023-03-01T08:32:34;255.57;;;72.40;;
40541;SDS011;49288;52.194;5.676;2023-03-01T08:37:38;252.60;;;71.57;;
40541;SDS011;49288;52.194;5.676;2023-03-01T08:42:41;229.82;;;70.10;;
40541;SDS011;49288;52.194;5.676;2023-03-01T08:47:44;227.97;;;65.73;;
40541;SDS011;49288;52.194;5.676;2023-03-01T08:52:47;161.82;;;53.47;;
40541;SDS011;49288;52.194;5.676;2023-03-01T08:57:50;88.45;;;37.20;;
40541;SDS011;49288;52.194;5.676;2023-03-01T09:02:52;48.42;;;20.17;;
40541;SDS011;49288;52.194;5.676;2023-03-01T09:07:56;35.03;;;17.27;;
40541;SDS011;49288;52.194;5.676;2023-03-01T09:12:59;28.13;;;13.73;;
40541;SDS011;49288;52.194;5.676;2023-03-01T09:18:02;21.10;;;11.27;;
40541;SDS011;49288;52.194;5.676;2023-03-01T09:23:04;29.27;;;11.50;;
40541;SDS011;49288;52.194;5.676;2023-03-01T09:28:07;24.85;;;12.27;;
40541;SDS011;49288;52.194;5.676;2023-03-01T09:33:19;27.38;;;11.80;;
40541;SDS011;49288;52.194;5.676;2023-03-01T09:38:22;27.60;;;12.27;;
40541;SDS011;49288;52.194;5.676;2023-03-01T09:44:12;14.15;;;7.68;;
40541;SDS011;49288;52.194;5.676;2023-03-01T09:48:59;15.38;;;7.32;;
40541;SDS011;49288;52.194;5.676;2023-03-01T09:54:05;18.52;;;7.43;;
40541;SDS011;49288;52.194;5.676;2023-03-01T10:09:33;15.77;;;6.90;;
40541;SDS011;49288;52.194;5.676;2023-03-01T10:14:46;12.85;;;6.07;;
40541;SDS011;49288;52.194;5.676;2023-03-01T10:19:53;12.02;;;5.32;;
40541;SDS011;49288;52.194;5.676;2023-03-01T10:24:57;10.70;;;5.18;;
40541;SDS011;49288;52.194;5.676;2023-03-01T10:35:19;9.75;;;5.00;;
40541;SDS011;49288;52.194;5.676;2023-03-01T10:40:24;8.80;;;4.65;;
40541;SDS011;49288;52.194;5.676;2023-03-01T10:50:32;11.88;;;5.20;;
40541;SDS011;49288;52.194;5.676;2023-03-01T10:55:35;11.63;;;5.88;;
40541;SDS011;49288;52.194;5.676;2023-03-01T11:00:59;12.48;;;6.88;;
40541;SDS011;49288;52.194;5.676;2023-03-01T11:11:21;10.70;;;6.28;;
40541;SDS011;49288;52.194;5.676;2023-03-01T11:16:37;13.38;;;6.70;;
40541;SDS011;49288;52.194;5.676;2023-03-01T11:27:24;11.68;;;6.50;;
40541;SDS011;49288;52.194;5.676;2023-03-01T11:32:41;15.63;;;5.35;;
40541;SDS011;49288;52.194;5.676;2023-03-01T11:53:54;13.98;;;6.05;;
40541;SDS011;49288;52.194;5.676;2023-03-01T12:20:58;11.05;;;5.80;;
40541;SDS011;49288;52.194;5.676;2023-03-01T12:31:44;14.55;;;6.05;;
40541;SDS011;49288;52.194;5.676;2023-03-01T12:47:53;12.45;;;6.35;;
40541;SDS011;49288;52.194;5.676;2023-03-01T12:53:02;10.82;;;5.72;;
40541;SDS011;49288;52.194;5.676;2023-03-01T13:08:45;13.30;;;6.10;;
40541;SDS011;49288;52.194;5.676;2023-03-01T13:19:26;16.00;;;6.55;;
40541;SDS011;49288;52.194;5.676;2023-03-01T13:24:42;10.07;;;5.97;;
40541;SDS011;49288;52.194;5.676;2023-03-01T13:29:46;11.60;;;6.60;;
40541;SDS011;49288;52.194;5.676;2023-03-01T13:45:22;11.70;;;5.97;;
40541;SDS011;49288;52.194;5.676;2023-03-01T13:50:28;12.00;;;6.43;;
40541;SDS011;49288;52.194;5.676;2023-03-01T13:55:41;11.43;;;5.93;;
40541;SDS011;49288;52.194;5.676;2023-03-01T14:00:45;12.85;;;7.10;;
40541;SDS011;49288;52.194;5.676;2023-03-01T14:17:31;10.35;;;6.47;;
40541;SDS011;49288;52.194;5.676;2023-03-01T14:22:47;10.63;;;6.10;;
40541;SDS011;49288;52.194;5.676;2023-03-01T14:27:54;16.23;;;6.72;;
40541;SDS011;49288;52.194;5.676;2023-03-01T14:33:32;12.27;;;7.00;;
40541;SDS011;49288;52.194;5.676;2023-03-01T14:38:44;11.00;;;5.68;;
40541;SDS011;49288;52.194;5.676;2023-03-01T14:44:23;14.57;;;6.20;;
40541;SDS011;49288;52.194;5.676;2023-03-01T14:54:27;12.30;;;6.17;;
40541;SDS011;49288;52.194;5.676;2023-03-01T14:59:34;11.23;;;5.88;;
40541;SDS011;49288;52.194;5.676;2023-03-01T15:04:37;10.40;;;5.43;;
40541;SDS011;49288;52.194;5.676;2023-03-01T15:09:40;12.63;;;6.03;;
40541;SDS011;49288;52.194;5.676;2023-03-01T15:14:43;13.07;;;6.70;;
40541;SDS011;49288;52.194;5.676;2023-03-01T15:20:05;11.82;;;6.45;;
40541;SDS011;49288;52.194;5.676;2023-03-01T15:25:19;17.77;;;6.88;;
40541;SDS011;49288;52.194;5.676;2023-03-01T15:30:33;12.32;;;6.72;;
40541;SDS011;49288;52.194;5.676;2023-03-01T15:35:43;13.70;;;7.55;;
40541;SDS011;49288;52.194;5.676;2023-03-01T15:40:50;13.75;;;6.93;;
40541;SDS011;49288;52.194;5.676;2023-03-01T15:45:56;13.48;;;6.72;;
40541;SDS011;49288;52.194;5.676;2023-03-01T15:51:00;15.27;;;7.60;;
40541;SDS011;49288;52.194;5.676;2023-03-01T15:56:03;21.45;;;6.85;;
40541;SDS011;49288;52.194;5.676;2023-03-01T16:01:13;10.73;;;6.63;;
40541;SDS011;49288;52.194;5.676;2023-03-01T16:06:17;16.38;;;6.18;;
40541;SDS011;49288;52.194;5.676;2023-03-01T16:11:20;10.57;;;6.53;;
40541;SDS011;49288;52.194;5.676;2023-03-01T16:16:23;14.45;;;7.07;;
40541;SDS011;49288;52.194;5.676;2023-03-01T16:21:26;14.00;;;6.63;;
40541;SDS011;49288;52.194;5.676;2023-03-01T16:26:28;12.77;;;6.82;;
40541;SDS011;49288;52.194;5.676;2023-03-01T16:31:32;13.32;;;6.57;;
40541;SDS011;49288;52.194;5.676;2023-03-01T16:36:35;11.05;;;6.07;;
40541;SDS011;49288;52.194;5.676;2023-03-01T16:41:38;16.48;;;6.55;;
40541;SDS011;49288;52.194;5.676;2023-03-01T16:46:41;16.25;;;7.15;;
40541;SDS011;49288;52.194;5.676;2023-03-01T16:51:45;14.73;;;7.22;;
40541;SDS011;49288;52.194;5.676;2023-03-01T16:56:48;16.52;;;6.30;;
40541;SDS011;49288;52.194;5.676;2023-03-01T17:01:50;16.35;;;7.03;;
40541;SDS011;49288;52.194;5.676;2023-03-01T17:06:53;17.73;;;6.88;;
40541;SDS011;49288;52.194;5.676;2023-03-01T17:11:56;12.57;;;6.60;;
40541;SDS011;49288;52.194;5.676;2023-03-01T17:17:01;13.20;;;6.90;;
40541;SDS011;49288;52.194;5.676;2023-03-01T17:22:05;12.10;;;6.55;;
40541;SDS011;49288;52.194;5.676;2023-03-01T17:27:08;13.90;;;6.95;;
40541;SDS011;49288;52.194;5.676;2023-03-01T17:32:13;14.10;;;7.05;;
40541;SDS011;49288;52.194;5.676;2023-03-01T17:37:16;18.45;;;7.22;;
40541;SDS011;49288;52.194;5.676;2023-03-01T17:42:19;15.30;;;7.15;;
40541;SDS011;49288;52.194;5.676;2023-03-01T17:47:22;14.93;;;7.30;;
40541;SDS011;49288;52.194;5.676;2023-03-01T17:52:24;16.05;;;7.60;;
40541;SDS011;49288;52.194;5.676;2023-03-01T17:57:27;13.20;;;7.63;;
40541;SDS011;49288;52.194;5.676;2023-03-01T18:02:30;18.55;;;7.70;;
40541;SDS011;49288;52.194;5.676;2023-03-01T18:07:32;17.40;;;7.55;;
40541;SDS011;49288;52.194;5.676;2023-03-01T18:12:36;18.75;;;7.57;;
40541;SDS011;49288;52.194;5.676;2023-03-01T18:17:40;14.77;;;7.97;;
40541;SDS011;49288;52.194;5.676;2023-03-01T18:22:42;21.25;;;7.68;;
40541;SDS011;49288;52.194;5.676;2023-03-01T18:27:46;18.35;;;7.15;;
40541;SDS011;49288;52.194;5.676;2023-03-01T18:32:49;14.27;;;7.50;;
40541;SDS011;49288;52.194;5.676;2023-03-01T18:37:57;13.10;;;6.78;;
40541;SDS011;49288;52.194;5.676;2023-03-01T18:43:01;18.17;;;7.80;;
40541;SDS011;49288;52.194;5.676;2023-03-01T18:48:04;17.52;;;7.80;;
40541;SDS011;49288;52.194;5.676;2023-03-01T18:53:07;19.50;;;8.32;;
40541;SDS011;49288;52.194;5.676;2023-03-01T18:58:10;27.17;;;8.82;;
40541;SDS011;49288;52.194;5.676;2023-03-01T19:03:13;19.13;;;8.50;;
40541;SDS011;49288;52.194;5.676;2023-03-01T19:08:15;17.65;;;7.72;;
40541;SDS011;49288;52.194;5.676;2023-03-01T19:13:18;21.05;;;8.70;;
40541;SDS011;49288;52.194;5.676;2023-03-01T19:18:20;18.95;;;8.13;;
40541;SDS011;49288;52.194;5.676;2023-03-01T19:23:23;17.27;;;8.32;;
40541;SDS011;49288;52.194;5.676;2023-03-01T19:28:26;21.67;;;8.23;;
40541;SDS011;49288;52.194;5.676;2023-03-01T19:33:29;17.08;;;7.45;;
40541;SDS011;49288;52.194;5.676;2023-03-01T19:43:37;17.88;;;8.38;;
40541;SDS011;49288;52.194;5.676;2023-03-01T19:48:40;17.67;;;8.02;;
40541;SDS011;49288;52.194;5.676;2023-03-01T19:53:45;21.25;;;8.82;;
40541;SDS011;49288;52.194;5.676;2023-03-01T19:58:51;21.55;;;8.25;;
40541;SDS011;49288;52.194;5.676;2023-03-01T20:04:01;23.15;;;8.60;;
40541;SDS011;49288;52.194;5.676;2023-03-01T20:09:06;24.65;;;10.73;;
40541;SDS011;49288;52.194;5.676;2023-03-01T20:14:22;23.92;;;9.77;;
40541;SDS011;49288;52.194;5.676;2023-03-01T20:19:25;33.17;;;13.88;;
40541;SDS011;49288;52.194;5.676;2023-03-01T20:24:28;30.80;;;13.48;;
40541;SDS011;49288;52.194;5.676;2023-03-01T20:29:32;26.17;;;10.73;;
40541;SDS011;49288;52.194;5.676;2023-03-01T20:34:35;16.92;;;8.23;;
40541;SDS011;49288;52.194;5.676;2023-03-01T20:39:38;28.17;;;11.38;;
40541;SDS011;49288;52.194;5.676;2023-03-01T20:44:41;27.40;;;10.98;;
40541;SDS011;49288;52.194;5.676;2023-03-01T20:49:50;26.83;;;11.40;;
40541;SDS011;49288;52.194;5.676;2023-03-01T20:54:53;30.08;;;12.13;;
40541;SDS011;49288;52.194;5.676;2023-03-01T20:59:56;33.45;;;12.10;;
40541;SDS011;49288;52.194;5.676;2023-03-01T21:05:01;36.60;;;14.07;;
40541;SDS011;49288;52.194;5.676;2023-03-01T21:15:09;32.72;;;13.85;;
40541;SDS011;49288;52.194;5.676;2023-03-01T21:20:21;39.28;;;14.40;;
40541;SDS011;49288;52.194;5.676;2023-03-01T21:25:23;35.47;;;13.80;;
40541;SDS011;49288;52.194;5.676;2023-03-01T21:30:27;29.80;;;12.98;;
40541;SDS011;49288;52.194;5.676;2023-03-01T21:35:29;43.80;;;15.32;;
40541;SDS011;49288;52.194;5.676;2023-03-01T21:40:32;32.30;;;13.25;;
40541;SDS011;49288;52.194;5.676;2023-03-01T21:45:35;33.45;;;13.88;;
40541;SDS011;49288;52.194;5.676;2023-03-01T21:50:37;37.38;;;14.52;;
40541;SDS011;49288;52.194;5.676;2023-03-01T21:55:45;33.05;;;13.85;;
40541;SDS011;49288;52.194;5.676;2023-03-01T22:00:48;37.60;;;15.05;;
40541;SDS011;49288;52.194;5.676;2023-03-01T22:05:54;47.80;;;19.30;;
40541;SDS011;49288;52.194;5.676;2023-03-01T22:11:00;67.43;;;21.25;;
40541;SDS011;49288;52.194;5.676;2023-03-01T22:16:03;55.47;;;21.67;;
40541;SDS011;49288;52.194;5.676;2023-03-01T22:21:07;55.20;;;18.95;;
40541;SDS011;49288;52.194;5.676;2023-03-01T22:26:19;62.50;;;21.25;;
40541;SDS011;49288;52.194;5.676;2023-03-01T22:31:26;77.18;;;28.10;;
40541;SDS011;49288;52.194;5.676;2023-03-01T22:36:29;88.78;;;31.30;;
40541;SDS011;49288;52.194;5.676;2023-03-01T22:41:34;80.67;;;29.03;;
40541;SDS011;49288;52.194;5.676;2023-03-01T22:46:39;65.70;;;21.45;;
40541;SDS011;49288;52.194;5.676;2023-03-01T22:51:42;113.03;;;40.03;;
40541;SDS011;49288;52.194;5.676;2023-03-01T22:56:46;157.98;;;43.22;;
40541;SDS011;49288;52.194;5.676;2023-03-01T23:01:49;167.82;;;51.97;;
40541;SDS011;49288;52.194;5.676;2023-03-01T23:06:59;156.05;;;43.65;;
40541;SDS011;49288;52.194;5.676;2023-03-01T23:12:02;167.18;;;45.97;;
40541;SDS011;49288;52.194;5.676;2023-03-01T23:17:07;183.30;;;49.00;;
40541;SDS011;49288;52.194;5.676;2023-03-01T23:22:11;213.65;;;54.90;;
40541;SDS011;49288;52.194;5.676;2023-03-01T23:27:14;225.55;;;56.20;;
40541;SDS011;49288;52.194;5.676;2023-03-01T23:32:17;257.73;;;58.58;;
40541;SDS011;49288;52.194;5.676;2023-03-01T23:37:20;257.00;;;60.22;;
40541;SDS011;49288;52.194;5.676;2023-03-01T23:42:23;196.32;;;47.42;;
40541;SDS011;49288;52.194;5.676;2023-03-01T23:47:26;271.63;;;57.33;;
40541;SDS011;49288;52.194;5.676;2023-03-01T23:52:29;250.63;;;53.22;;
40541;SDS011;49288;52.194;5.676;2023-03-01T23:57:35;258.95;;;58.50;;
